Time;durP1;ratioP1;P1;durP2;ratioP2;P2;SDS_P1;SDS_P2;PMS_P1;PMS_P2;Temp;Humidity;BMP_temperature;BMP_pressure;BME280_temperature;BME280_humidity;BME280_pressure;Samples;Min_cycle;Max_cycle;Signal;HPM_P1;HPM_P2
2021/08/14 00:02:01;;;;;;;13.02;8.63;;;;;;;;;;5074742;28;20141;-46
2021/08/14 00:04:26;;;;;;;25.83;9.50;;;;;;;;;;5073779;28;20540;-46
2021/08/14 00:06:52;;;;;;;18.83;7.90;;;;;;;;;;5074167;28;20023;-47
2021/08/14 00:09:17;;;;;;;19.08;9.20;;;;;;;;;;5075379;28;20024;-46
2021/08/14 00:11:42;;;;;;;25.08;8.57;;;;;;;;;;5074742;28;20041;-50
2021/08/14 00:14:08;;;;;;;31.63;9.93;;;;;;;;;;5074946;28;20020;-46
2021/08/14 00:16:33;;;;;;;24.20;10.15;;;;;;;;;;5071571;28;20013;-47
2021/08/14 00:18:58;;;;;;;11.80;7.63;;;;;;;;;;5074278;28;20028;-47
2021/08/14 00:21:24;;;;;;;21.65;8.60;;;;;;;;;;5072953;28;20103;-45
2021/08/14 00:23:49;;;;;;;27.33;10.07;;;;;;;;;;5071311;28;20373;-44
2021/08/14 00:26:14;;;;;;;19.20;8.45;;;;;;;;;;5071666;28;20036;-47
2021/08/14 00:28:41;;;;;;;17.80;8.65;;;;;;;;;;5072226;28;20046;-44
2021/08/14 00:31:06;;;;;;;24.58;9.60;;;;;;;;;;5071111;28;20024;-45
2021/08/14 00:33:31;;;;;;;14.93;7.65;;;;;;;;;;5065800;28;20066;-49
2021/08/14 00:35:57;;;;;;;19.38;8.98;;;;;;;;;;5065472;28;20368;-47
2021/08/14 00:38:22;;;;;;;26.10;8.32;;;;;;;;;;5075571;28;20426;-47
2021/08/14 00:40:47;;;;;;;19.95;7.55;;;;;;;;;;5071533;28;20096;-44
2021/08/14 00:43:13;;;;;;;21.38;9.73;;;;;;;;;;5074815;28;20043;-45
2021/08/14 00:45:40;;;;;;;20.58;7.95;;;;;;;;;;5071977;28;20024;-47
2021/08/14 00:48:06;;;;;;;21.13;9.75;;;;;;;;;;5071125;28;20082;-47
2021/08/14 00:50:31;;;;;;;13.30;7.20;;;;;;;;;;5074157;28;20024;-45
2021/08/14 00:52:56;;;;;;;19.63;9.15;;;;;;;;;;5075092;28;20313;-49
2021/08/14 00:55:22;;;;;;;26.42;9.35;;;;;;;;;;5073929;28;20495;-49
2021/08/14 00:57:47;;;;;;;18.35;9.80;;;;;;;;;;5074424;28;20024;-50
2021/08/14 01:00:13;;;;;;;15.38;8.68;;;;;;;;;;5072135;28;20060;-52
2021/08/14 01:02:38;;;;;;;42.28;11.43;;;;;;;;;;5067371;28;20064;-49
2021/08/14 01:05:04;;;;;;;21.05;9.25;;;;;;;;;;5075248;28;20111;-52
2021/08/14 01:07:29;;;;;;;16.23;9.32;;;;;;;;;;5071331;28;20013;-47
2021/08/14 01:09:56;;;;;;;30.52;10.10;;;;;;;;;;5076346;28;20027;-50
2021/08/14 01:12:21;;;;;;;18.65;8.52;;;;;;;;;;5076904;28;20031;-50
2021/08/14 01:14:47;;;;;;;31.33;11.40;;;;;;;;;;5068711;28;20407;-50
2021/08/14 01:17:13;;;;;;;28.73;10.15;;;;;;;;;;5078319;28;20032;-48
2021/08/14 01:19:39;;;;;;;23.20;9.63;;;;;;;;;;5073458;28;20035;-51
2021/08/14 01:22:08;;;;;;;23.30;7.43;;;;;;;;;;5075658;28;20039;-51
2021/08/14 01:24:34;;;;;;;17.95;9.77;;;;;;;;;;5069528;28;20013;-48
2021/08/14 01:27:00;;;;;;;19.92;7.93;;;;;;;;;;5074516;28;20020;-47
2021/08/14 01:29:25;;;;;;;37.22;10.40;;;;;;;;;;5077252;28;20050;-48
2021/08/14 01:31:50;;;;;;;58.03;11.38;;;;;;;;;;5078420;28;20035;-47
2021/08/14 01:34:17;;;;;;;18.58;5.53;;;;;;;;;;5076614;28;20016;-49
2021/08/14 01:36:45;;;;;;;15.32;7.57;;;;;;;;;;5075071;28;20024;-48
2021/08/14 01:39:12;;;;;;;21.73;10.32;;;;;;;;;;5077868;28;20105;-47
2021/08/14 01:41:38;;;;;;;26.05;10.32;;;;;;;;;;5075007;28;20031;-45
2021/08/14 01:44:07;;;;;;;21.83;8.05;;;;;;;;;;5074749;28;20021;-46
2021/08/14 01:46:34;;;;;;;19.55;8.75;;;;;;;;;;5080291;28;20540;-47
2021/08/14 01:48:59;;;;;;;39.38;11.88;;;;;;;;;;5077788;28;20043;-45
2021/08/14 01:51:25;;;;;;;36.63;10.48;;;;;;;;;;5077687;28;20491;-50
2021/08/14 01:53:52;;;;;;;28.33;13.20;;;;;;;;;;5080504;28;20032;-47
2021/08/14 01:56:18;;;;;;;13.52;9.10;;;;;;;;;;5078358;28;20024;-45
2021/08/14 01:58:43;;;;;;;16.80;6.82;;;;;;;;;;5076340;28;20028;-48
2021/08/14 02:01:09;;;;;;;24.45;9.30;;;;;;;;;;5077625;28;20025;-47
2021/08/14 02:03:35;;;;;;;26.60;9.50;;;;;;;;;;5074510;28;20070;-47
2021/08/14 02:06:02;;;;;;;18.50;8.20;;;;;;;;;;5076787;28;20020;-45
2021/08/14 02:08:27;;;;;;;18.40;7.85;;;;;;;;;;5075038;28;20029;-46
2021/08/14 02:10:52;;;;;;;44.88;10.35;;;;;;;;;;5077771;28;20025;-46
2021/08/14 02:13:18;;;;;;;15.68;9.93;;;;;;;;;;5073915;28;20413;-47
2021/08/14 02:15:43;;;;;;;17.77;9.15;;;;;;;;;;5073875;28;20028;-46
2021/08/14 02:18:08;;;;;;;27.02;9.30;;;;;;;;;;5075161;28;20016;-45
2021/08/14 02:20:34;;;;;;;22.15;9.35;;;;;;;;;;5069777;28;20162;-47
2021/08/14 02:22:59;;;;;;;11.13;6.78;;;;;;;;;;5071483;28;20194;-45
2021/08/14 02:25:24;;;;;;;29.30;9.63;;;;;;;;;;5074698;28;20032;-47
2021/08/14 02:27:49;;;;;;;24.80;10.00;;;;;;;;;;5076759;28;20134;-48
2021/08/14 02:30:15;;;;;;;21.13;8.70;;;;;;;;;;5075453;28;20490;-46
2021/08/14 02:32:40;;;;;;;18.65;9.27;;;;;;;;;;5071219;28;20017;-45
2021/08/14 02:35:05;;;;;;;22.17;10.75;;;;;;;;;;5077230;28;20032;-49
2021/08/14 02:37:31;;;;;;;19.92;10.13;;;;;;;;;;5074633;28;20063;-47
2021/08/14 02:39:56;;;;;;;20.65;9.18;;;;;;;;;;5076025;28;20021;-47
2021/08/14 02:42:21;;;;;;;21.30;9.85;;;;;;;;;;5076581;28;20035;-46
2021/08/14 02:44:47;;;;;;;27.42;9.07;;;;;;;;;;5076162;28;20423;-44
2021/08/14 02:47:12;;;;;;;23.40;8.80;;;;;;;;;;5077186;28;20032;-45
2021/08/14 02:49:37;;;;;;;21.98;9.25;;;;;;;;;;5070947;28;20471;-49
2021/08/14 02:52:02;;;;;;;36.75;9.15;;;;;;;;;;5076867;28;20024;-46
2021/08/14 02:54:28;;;;;;;18.98;8.38;;;;;;;;;;5075071;28;20055;-45
2021/08/14 02:56:53;;;;;;;27.77;9.65;;;;;;;;;;5072763;28;20490;-45
2021/08/14 02:59:18;;;;;;;15.65;8.98;;;;;;;;;;5073181;28;20032;-44
2021/08/14 03:01:44;;;;;;;19.25;10.93;;;;;;;;;;5072919;28;20064;-49
2021/08/14 03:04:09;;;;;;;35.30;9.80;;;;;;;;;;5079242;28;20112;-44
2021/08/14 03:06:34;;;;;;;12.60;6.82;;;;;;;;;;5078024;28;20028;-46
2021/08/14 03:09:00;;;;;;;26.88;9.10;;;;;;;;;;5071752;28;20024;-46
2021/08/14 03:11:25;;;;;;;20.50;8.02;;;;;;;;;;5072768;28;20016;-48
2021/08/14 03:13:50;;;;;;;19.15;8.20;;;;;;;;;;5075583;28;20024;-45
2021/08/14 03:16:16;;;;;;;20.88;9.93;;;;;;;;;;5075091;28;20492;-45
2021/08/14 03:18:41;;;;;;;23.70;8.43;;;;;;;;;;5079094;28;20016;-46
2021/08/14 03:21:06;;;;;;;17.92;9.32;;;;;;;;;;5074187;28;20151;-45
2021/08/14 03:23:32;;;;;;;19.40;9.10;;;;;;;;;;5066180;28;20391;-46
2021/08/14 03:25:57;;;;;;;22.08;9.48;;;;;;;;;;5076612;28;20028;-47
2021/08/14 03:28:22;;;;;;;27.92;8.05;;;;;;;;;;5076741;28;20036;-46
2021/08/14 03:30:48;;;;;;;19.92;10.43;;;;;;;;;;5072880;28;20020;-48
2021/08/14 03:33:13;;;;;;;20.02;8.95;;;;;;;;;;5070899;28;20442;-44
2021/08/14 03:35:38;;;;;;;35.50;9.68;;;;;;;;;;5077068;28;20968;-44
2021/08/14 03:38:03;;;;;;;33.00;8.30;;;;;;;;;;5073736;28;20062;-44
2021/08/14 03:40:29;;;;;;;17.65;8.20;;;;;;;;;;5074529;28;20031;-46
2021/08/14 03:42:54;;;;;;;11.90;6.57;;;;;;;;;;5074236;28;20019;-47
2021/08/14 03:45:20;;;;;;;11.35;7.65;;;;;;;;;;5076168;28;20021;-45
2021/08/14 03:47:45;;;;;;;26.95;10.35;;;;;;;;;;5074254;28;20340;-45
2021/08/14 03:50:11;;;;;;;14.30;7.60;;;;;;;;;;5073092;28;20024;-46
2021/08/14 03:52:36;;;;;;;15.80;8.25;;;;;;;;;;5073967;28;20025;-45
2021/08/14 03:55:02;;;;;;;22.52;10.23;;;;;;;;;;5074669;28;20537;-44
2021/08/14 03:57:28;;;;;;;23.52;10.43;;;;;;;;;;5072150;28;20023;-44
2021/08/14 03:59:53;;;;;;;22.73;8.93;;;;;;;;;;5073362;28;20028;-43
2021/08/14 04:02:18;;;;;;;25.30;8.75;;;;;;;;;;5073548;28;20083;-43
2021/08/14 04:04:43;;;;;;;15.38;9.38;;;;;;;;;;5070777;28;20047;-42
2021/08/14 04:07:09;;;;;;;13.43;9.98;;;;;;;;;;5072601;28;20042;-43
2021/08/14 04:09:34;;;;;;;11.80;7.72;;;;;;;;;;5067447;28;20053;-43
2021/08/14 04:11:59;;;;;;;24.40;9.55;;;;;;;;;;5071391;28;20011;-45
2021/08/14 04:14:25;;;;;;;26.52;8.48;;;;;;;;;;5076388;28;20108;-42
2021/08/14 04:16:50;;;;;;;25.55;8.45;;;;;;;;;;5074371;28;20381;-45
2021/08/14 04:19:15;;;;;;;21.10;8.65;;;;;;;;;;5073704;28;20028;-46
2021/08/14 04:21:40;;;;;;;20.08;8.43;;;;;;;;;;5071963;28;20098;-46
2021/08/14 04:24:06;;;;;;;26.75;9.73;;;;;;;;;;5075012;28;20628;-45
2021/08/14 04:26:31;;;;;;;25.92;8.55;;;;;;;;;;5076491;28;20025;-46
2021/08/14 04:28:57;;;;;;;25.25;8.20;;;;;;;;;;5072034;28;20012;-46
2021/08/14 04:31:22;;;;;;;21.73;7.07;;;;;;;;;;5075330;28;20502;-45
2021/08/14 04:33:48;;;;;;;20.02;8.15;;;;;;;;;;5069331;28;20056;-45
2021/08/14 04:36:14;;;;;;;29.42;10.32;;;;;;;;;;5070870;28;20067;-46
2021/08/14 04:38:39;;;;;;;16.90;8.45;;;;;;;;;;5076333;28;20454;-47
2021/08/14 04:41:04;;;;;;;19.13;9.10;;;;;;;;;;5070734;28;20021;-45
2021/08/14 04:43:29;;;;;;;22.55;8.27;;;;;;;;;;5076901;28;20021;-46
2021/08/14 04:45:55;;;;;;;22.20;7.97;;;;;;;;;;5075088;28;20421;-48
2021/08/14 04:48:20;;;;;;;17.23;8.68;;;;;;;;;;5068216;28;20021;-46
2021/08/14 04:50:45;;;;;;;25.75;9.20;;;;;;;;;;5075726;28;20433;-47
2021/08/14 04:53:11;;;;;;;29.27;8.32;;;;;;;;;;5078135;28;20025;-46
2021/08/14 04:55:36;;;;;;;28.42;8.98;;;;;;;;;;5071064;28;20480;-45
2021/08/14 04:58:01;;;;;;;9.07;6.20;;;;;;;;;;5085118;28;20032;-47
2021/08/14 05:00:27;;;;;;;29.05;8.30;;;;;;;;;;5077030;28;20416;-49
2021/08/14 05:02:52;;;;;;;17.80;6.13;;;;;;;;;;5078145;28;20861;-45
2021/08/14 05:05:17;;;;;;;25.23;6.57;;;;;;;;;;5077816;28;20055;-46
2021/08/14 05:07:42;;;;;;;21.65;8.70;;;;;;;;;;5076885;28;20016;-46
2021/08/14 05:10:11;;;;;;;46.95;10.05;;;;;;;;;;5080092;28;20074;-44
2021/08/14 05:12:36;;;;;;;21.02;9.52;;;;;;;;;;5078552;28;20119;-46
2021/08/14 05:15:02;;;;;;;24.13;8.30;;;;;;;;;;5077617;28;20111;-46
2021/08/14 05:17:27;;;;;;;15.95;10.43;;;;;;;;;;5074255;28;20028;-46
2021/08/14 05:19:52;;;;;;;21.65;9.52;;;;;;;;;;5078083;28;20467;-46
2021/08/14 05:22:18;;;;;;;21.08;8.00;;;;;;;;;;5076143;28;20107;-45
2021/08/14 05:24:43;;;;;;;29.02;8.65;;;;;;;;;;5070258;28;20387;-44
2021/08/14 05:27:08;;;;;;;31.48;7.88;;;;;;;;;;5077048;28;20479;-47
2021/08/14 05:29:34;;;;;;;13.65;7.43;;;;;;;;;;5074277;28;20514;-48
2021/08/14 05:31:59;;;;;;;26.85;15.70;;;;;;;;;;5077735;28;20028;-49
2021/08/14 05:34:24;;;;;;;13.55;8.63;;;;;;;;;;5078299;28;20117;-45
2021/08/14 05:36:49;;;;;;;14.93;8.40;;;;;;;;;;5075989;28;20035;-47
2021/08/14 05:39:15;;;;;;;25.60;9.50;;;;;;;;;;5076662;28;20009;-46
2021/08/14 05:41:42;;;;;;;21.13;9.18;;;;;;;;;;5078610;28;20031;-47
2021/08/14 05:44:07;;;;;;;22.20;7.75;;;;;;;;;;5074765;28;20028;-49
2021/08/14 05:46:32;;;;;;;20.55;8.38;;;;;;;;;;5076339;28;20395;-49
2021/08/14 05:48:58;;;;;;;14.65;9.68;;;;;;;;;;5079297;28;20024;-51
2021/08/14 05:51:24;;;;;;;25.05;10.05;;;;;;;;;;5073599;28;20025;-51
2021/08/14 05:53:49;;;;;;;25.67;9.90;;;;;;;;;;5071323;28;20111;-49
2021/08/14 05:56:15;;;;;;;27.27;8.55;;;;;;;;;;5072773;28;20803;-47
2021/08/14 05:58:40;;;;;;;41.20;11.93;;;;;;;;;;5076337;28;20029;-49
2021/08/14 06:01:06;;;;;;;21.77;9.45;;;;;;;;;;5077725;28;20031;-51
2021/08/14 06:03:35;;;;;;;34.30;9.90;;;;;;;;;;5076403;28;20103;-51
2021/08/14 06:06:00;;;;;;;20.40;9.52;;;;;;;;;;5077537;28;20027;-50
2021/08/14 06:08:26;;;;;;;28.42;7.80;;;;;;;;;;5070441;28;20019;-45
2021/08/14 06:10:51;;;;;;;15.93;6.55;;;;;;;;;;5074275;28;20060;-51
2021/08/14 06:13:16;;;;;;;20.77;7.28;;;;;;;;;;5077588;28;20035;-48
2021/08/14 06:15:42;;;;;;;39.60;8.13;;;;;;;;;;5074884;28;20379;-47
2021/08/14 06:18:07;;;;;;;30.17;9.25;;;;;;;;;;5074764;28;20025;-49
2021/08/14 06:20:32;;;;;;;27.42;8.43;;;;;;;;;;5077644;28;20055;-45
2021/08/14 06:22:58;;;;;;;44.22;8.98;;;;;;;;;;5068876;28;20079;-46
2021/08/14 06:25:25;;;;;;;24.58;8.07;;;;;;;;;;5073603;28;20088;-48
2021/08/14 06:27:50;;;;;;;24.88;8.98;;;;;;;;;;5076784;28;20504;-49
2021/08/14 06:30:15;;;;;;;21.40;8.23;;;;;;;;;;5074544;28;20061;-48
2021/08/14 06:32:41;;;;;;;22.27;7.95;;;;;;;;;;5072085;28;20044;-45
2021/08/14 06:35:06;;;;;;;28.10;8.90;;;;;;;;;;5070542;28;20017;-45
2021/08/14 06:37:31;;;;;;;40.25;9.45;;;;;;;;;;5078849;28;20024;-47
2021/08/14 06:39:59;;;;;;;34.33;8.18;;;;;;;;;;5077616;28;20086;-47
2021/08/14 06:42:24;;;;;;;32.13;9.27;;;;;;;;;;5076829;28;20081;-51
2021/08/14 06:44:49;;;;;;;15.10;7.28;;;;;;;;;;5075934;28;20380;-48
2021/08/14 06:47:14;;;;;;;15.63;6.78;;;;;;;;;;5076360;28;20048;-48
2021/08/14 06:49:40;;;;;;;14.80;3.65;;;;;;;;;;5074289;28;20017;-47
2021/08/14 06:52:05;;;;;;;14.27;7.50;;;;;;;;;;5075608;28;20480;-49
2021/08/14 06:54:30;;;;;;;24.20;11.68;;;;;;;;;;5076053;28;20047;-46
2021/08/14 06:56:56;;;;;;;21.17;9.45;;;;;;;;;;5070504;28;20052;-44
2021/08/14 06:59:21;;;;;;;29.17;7.80;;;;;;;;;;5076796;28;20418;-47
2021/08/14 07:01:47;;;;;;;16.58;7.78;;;;;;;;;;5073518;28;20044;-45
2021/08/14 07:04:12;;;;;;;19.45;7.30;;;;;;;;;;5073162;28;20455;-49
2021/08/14 07:06:37;;;;;;;17.38;8.23;;;;;;;;;;5077770;28;20073;-47
2021/08/14 07:09:03;;;;;;;19.10;8.45;;;;;;;;;;5074326;28;20032;-45
2021/08/14 07:11:28;;;;;;;18.80;8.38;;;;;;;;;;5072229;28;20023;-49
2021/08/14 07:13:53;;;;;;;19.48;8.75;;;;;;;;;;5077901;28;20022;-47
2021/08/14 07:16:19;;;;;;;20.70;7.43;;;;;;;;;;5075109;28;20566;-46
2021/08/14 07:18:44;;;;;;;16.35;8.20;;;;;;;;;;5071708;28;20067;-51
2021/08/14 07:21:10;;;;;;;15.13;8.85;;;;;;;;;;5075228;28;20024;-44
2021/08/14 07:23:35;;;;;;;18.45;6.60;;;;;;;;;;5075669;28;20505;-50
2021/08/14 07:26:01;;;;;;;15.57;5.65;;;;;;;;;;5075798;28;20374;-44
2021/08/14 07:28:26;;;;;;;20.48;7.53;;;;;;;;;;5077404;28;20024;-51
2021/08/14 07:30:51;;;;;;;31.85;8.40;;;;;;;;;;5070888;28;20036;-45
2021/08/14 07:33:17;;;;;;;25.35;8.23;;;;;;;;;;5072949;28;20027;-46
2021/08/14 07:35:42;;;;;;;24.85;6.65;;;;;;;;;;5069340;28;20094;-45
2021/08/14 07:38:08;;;;;;;19.38;7.95;;;;;;;;;;5073976;28;20032;-46
2021/08/14 07:40:33;;;;;;;21.23;6.35;;;;;;;;;;5074176;28;20024;-50
2021/08/14 07:42:59;;;;;;;17.08;9.32;;;;;;;;;;5070826;28;20021;-45
2021/08/14 07:45:25;;;;;;;18.42;7.55;;;;;;;;;;5070573;28;20395;-49
2021/08/14 07:47:51;;;;;;;21.52;8.43;;;;;;;;;;5070815;28;20032;-44
2021/08/14 07:50:20;;;;;;;22.77;8.48;;;;;;;;;;5074611;28;20383;-49
2021/08/14 07:52:45;;;;;;;19.00;10.00;;;;;;;;;;5074744;28;20027;-47
2021/08/14 07:55:11;;;;;;;18.63;8.38;;;;;;;;;;5073566;28;20016;-51
2021/08/14 07:57:40;;;;;;;30.17;8.93;;;;;;;;;;5070523;28;20074;-45
2021/08/14 08:00:06;;;;;;;33.50;8.32;;;;;;;;;;5073349;28;20073;-47
2021/08/14 08:02:31;;;;;;;16.00;9.48;;;;;;;;;;5074184;28;20044;-47
2021/08/14 08:04:56;;;;;;;29.70;7.50;;;;;;;;;;5075338;28;20656;-46
2021/08/14 08:07:22;;;;;;;22.35;11.95;;;;;;;;;;5076094;28;20084;-48
2021/08/14 08:09:47;;;;;;;38.97;11.10;;;;;;;;;;5069963;28;20052;-47
2021/08/14 08:12:12;;;;;;;26.25;9.80;;;;;;;;;;5077775;28;20032;-49
2021/08/14 08:14:38;;;;;;;34.47;9.63;;;;;;;;;;5073089;28;20027;-47
2021/08/14 08:17:03;;;;;;;17.90;9.57;;;;;;;;;;5073751;28;20384;-52
2021/08/14 08:19:28;;;;;;;16.55;7.88;;;;;;;;;;5074793;28;20158;-46
2021/08/14 08:21:54;;;;;;;21.95;8.82;;;;;;;;;;5073850;28;20024;-49
2021/08/14 08:24:19;;;;;;;19.85;7.68;;;;;;;;;;5075568;28;20028;-52
2021/08/14 08:26:44;;;;;;;13.38;6.55;;;;;;;;;;5074637;28;20023;-50
2021/08/14 08:29:10;;;;;;;19.33;6.55;;;;;;;;;;5076159;28;20020;-48
2021/08/14 08:31:35;;;;;;;29.48;8.10;;;;;;;;;;5071373;28;20510;-46
2021/08/14 08:34:01;;;;;;;15.45;6.40;;;;;;;;;;5072880;28;20016;-45
2021/08/14 08:36:26;;;;;;;17.65;8.15;;;;;;;;;;5074960;28;20031;-49
2021/08/14 08:38:51;;;;;;;17.33;8.65;;;;;;;;;;5073059;28;20111;-46
2021/08/14 08:41:17;;;;;;;20.15;9.93;;;;;;;;;;5072820;28;20029;-48
2021/08/14 08:43:43;;;;;;;24.02;6.70;;;;;;;;;;5076375;28;20502;-48
2021/08/14 08:46:09;;;;;;;24.63;8.93;;;;;;;;;;5077014;28;20577;-49
2021/08/14 08:48:35;;;;;;;33.40;11.35;;;;;;;;;;5076924;28;20020;-44
2021/08/14 08:51:04;;;;;;;18.48;10.27;;;;;;;;;;5070118;28;20021;-45
2021/08/14 08:53:29;;;;;;;29.08;8.93;;;;;;;;;;5073159;28;20021;-47
2021/08/14 08:55:55;;;;;;;23.92;8.10;;;;;;;;;;5072299;28;20073;-45
2021/08/14 08:58:21;;;;;;;32.05;8.25;;;;;;;;;;5071428;28;20027;-47
2021/08/14 09:00:46;;;;;;;23.55;6.80;;;;;;;;;;5074769;28;20095;-49
2021/08/14 09:03:15;;;;;;;21.33;8.25;;;;;;;;;;5069161;28;20434;-46
2021/08/14 09:05:44;;;;;;;13.57;5.85;;;;;;;;;;5071530;28;20103;-45
2021/08/14 09:08:10;;;;;;;10.88;6.35;;;;;;;;;;5073931;28;20023;-46
2021/08/14 09:10:36;;;;;;;20.35;8.05;;;;;;;;;;5069830;28;20040;-51
2021/08/14 09:13:09;;;;;;;14.93;6.15;;;;;;;;;;5076186;28;20016;-46
2021/08/14 09:15:34;;;;;;;17.60;6.93;;;;;;;;;;5077355;28;20020;-49
2021/08/14 09:18:00;;;;;;;12.73;5.00;;;;;;;;;;5072554;28;20032;-44
2021/08/14 09:20:26;;;;;;;23.38;6.38;;;;;;;;;;5077418;28;20024;-52
2021/08/14 09:23:01;;;;;;;10.98;2.75;;;;;;;;;;5071764;28;20483;-46
2021/08/14 09:25:36;;;;;;;17.77;5.68;;;;;;;;;;5073157;28;20083;-44
2021/08/14 09:28:01;;;;;;;10.90;2.90;;;;;;;;;;5074541;28;20020;-48
2021/08/14 09:30:45;;;;;;;16.88;5.60;;;;;;;;;;5074071;28;20035;-47
2021/08/14 09:33:12;;;;;;;5.32;2.45;;;;;;;;;;5077711;28;20085;-49
2021/08/14 09:35:38;;;;;;;9.15;4.43;;;;;;;;;;5074111;28;20024;-44
2021/08/14 09:38:07;;;;;;;27.85;4.68;;;;;;;;;;5075590;28;20023;-48
2021/08/14 09:40:33;;;;;;;8.63;4.83;;;;;;;;;;5075276;28;20025;-49
2021/08/14 09:42:59;;;;;;;13.25;6.47;;;;;;;;;;5072110;28;20367;-47
2021/08/14 09:45:24;;;;;;;6.32;2.60;;;;;;;;;;5070317;28;20029;-44
2021/08/14 09:47:51;;;;;;;9.60;4.43;;;;;;;;;;5075144;28;20051;-50
2021/08/14 09:50:16;;;;;;;14.10;4.75;;;;;;;;;;5074702;28;20032;-50
2021/08/14 09:52:42;;;;;;;30.45;6.45;;;;;;;;;;5074095;28;20033;-51
2021/08/14 09:55:21;;;;;;;15.82;4.97;;;;;;;;;;5074620;28;20024;-45
2021/08/14 09:57:57;;;;;;;15.38;6.22;;;;;;;;;;5075388;28;20024;-48
2021/08/14 10:00:23;;;;;;;30.05;6.32;;;;;;;;;;5078881;28;20066;-51
2021/08/14 10:02:49;;;;;;;10.50;5.07;;;;;;;;;;5077268;28;20641;-46
2021/08/14 10:05:14;;;;;;;9.82;5.20;;;;;;;;;;5080844;28;20792;-46
2021/08/14 10:07:39;;;;;;;14.75;5.70;;;;;;;;;;5076748;28;20056;-45
2021/08/14 10:10:05;;;;;;;14.52;5.00;;;;;;;;;;5072400;28;20020;-51
2021/08/14 10:12:31;;;;;;;17.75;7.18;;;;;;;;;;5076860;28;20199;-45
2021/08/14 10:14:58;;;;;;;10.65;4.95;;;;;;;;;;5077386;28;20069;-45
2021/08/14 10:17:24;;;;;;;10.55;4.65;;;;;;;;;;5075167;28;20079;-50
2021/08/14 10:19:50;;;;;;;15.95;6.90;;;;;;;;;;5077604;28;20557;-48
2021/08/14 10:22:16;;;;;;;21.20;5.68;;;;;;;;;;5074172;28;20730;-46
2021/08/14 10:24:43;;;;;;;13.82;4.88;;;;;;;;;;5080439;28;20028;-48
2021/08/14 10:27:09;;;;;;;5.05;3.88;;;;;;;;;;5075269;28;20028;-48
2021/08/14 10:29:44;;;;;;;6.60;3.75;;;;;;;;;;5069601;28;20519;-46
2021/08/14 10:32:10;;;;;;;7.50;2.33;;;;;;;;;;5074587;28;20021;-45
2021/08/14 10:34:35;;;;;;;11.20;4.55;;;;;;;;;;5082226;28;20019;-48
2021/08/14 10:37:01;;;;;;;10.38;4.63;;;;;;;;;;5074678;28;20046;-45
2021/08/14 10:39:30;;;;;;;9.57;3.90;;;;;;;;;;5075262;28;20037;-46
2021/08/14 10:41:57;;;;;;;12.30;4.82;;;;;;;;;;5077747;28;20016;-45
2021/08/14 10:44:36;;;;;;;12.38;4.50;;;;;;;;;;5075025;28;20032;-52
2021/08/14 10:47:02;;;;;;;13.97;5.50;;;;;;;;;;5074354;28;20024;-45
2021/08/14 10:49:33;;;;;;;13.15;3.35;;;;;;;;;;5079740;28;20241;-46
2021/08/14 10:52:01;;;;;;;15.32;5.03;;;;;;;;;;5074058;28;20020;-50
2021/08/14 10:54:30;;;;;;;9.48;3.97;;;;;;;;;;5075638;28;20031;-50
2021/08/14 10:56:56;;;;;;;8.32;4.78;;;;;;;;;;5072343;28;20015;-51
2021/08/14 11:02:01;;;;;;;;;;;;;;;;;;5071034;28;20523;-52
2021/08/14 11:04:37;;;;;;;9.77;4.73;;;;;;;;;;5076666;28;19908;-45
2021/08/14 11:07:18;;;;;;;4.25;2.83;;;;;;;;;;5076093;28;20024;-44
2021/08/14 11:09:44;;;;;;;7.00;2.58;;;;;;;;;;5071811;28;20425;-45
2021/08/14 11:12:10;;;;;;;8.43;2.58;;;;;;;;;;5085463;28;20024;-45
2021/08/14 11:14:42;;;;;;;23.35;3.63;;;;;;;;;;5074450;28;20065;-48
2021/08/14 11:17:08;;;;;;;9.07;4.28;;;;;;;;;;5060560;28;20024;-46
2021/08/14 11:19:42;;;;;;;10.35;4.45;;;;;;;;;;5074162;28;20019;-47
2021/08/14 11:22:17;;;;;;;9.95;4.68;;;;;;;;;;5070100;28;20074;-46
2021/08/14 11:24:42;;;;;;;7.65;3.75;;;;;;;;;;5073002;28;20025;-49
2021/08/14 11:27:23;;;;;;;8.55;3.08;;;;;;;;;;5068843;28;20361;-48
2021/08/14 11:29:56;;;;;;;2.65;1.10;;;;;;;;;;5070522;28;20028;-47
2021/08/14 11:32:22;;;;;;;6.05;3.45;;;;;;;;;;5070135;28;20051;-45
2021/08/14 11:34:48;;;;;;;6.38;3.28;;;;;;;;;;5072798;28;20080;-44
2021/08/14 11:37:13;;;;;;;17.42;6.20;;;;;;;;;;5071821;28;20139;-43
2021/08/14 11:39:39;;;;;;;5.47;2.95;;;;;;;;;;5071481;28;20456;-47
2021/08/14 11:42:04;;;;;;;15.52;5.35;;;;;;;;;;5071215;28;20023;-45
2021/08/14 11:44:32;;;;;;;6.47;2.72;;;;;;;;;;5072180;28;20038;-46
2021/08/14 11:47:05;;;;;;;12.55;3.08;;;;;;;;;;5071960;28;20035;-45
2021/08/14 11:49:49;;;;;;;6.80;3.40;;;;;;;;;;5067679;28;20020;-42
2021/08/14 11:52:19;;;;;;;10.38;5.10;;;;;;;;;;5072354;28;20020;-45
2021/08/14 11:54:44;;;;;;;2.78;2.00;;;;;;;;;;5069318;28;20016;-45
2021/08/14 11:57:11;;;;;;;9.02;2.78;;;;;;;;;;5069011;28;20042;-45
2021/08/14 11:59:37;;;;;;;5.05;4.00;;;;;;;;;;5076185;28;20128;-47
2021/08/14 12:02:02;;;;;;;10.55;3.10;;;;;;;;;;5072148;28;20067;-43
2021/08/14 12:04:27;;;;;;;20.55;3.38;;;;;;;;;;5067252;28;20717;-48
2021/08/14 12:06:56;;;;;;;11.10;3.58;;;;;;;;;;5067145;28;20032;-45
2021/08/14 12:09:22;;;;;;;3.38;2.45;;;;;;;;;;5072886;28;20107;-43
2021/08/14 12:11:51;;;;;;;19.42;2.88;;;;;;;;;;5072865;28;20103;-47
2021/08/14 12:14:20;;;;;;;12.68;4.78;;;;;;;;;;5069560;28;20024;-47
2021/08/14 12:16:47;;;;;;;8.03;2.97;;;;;;;;;;5066428;28;20028;-47
2021/08/14 12:19:17;;;;;;;6.00;2.95;;;;;;;;;;5069718;28;20039;-47
2021/08/14 12:21:43;;;;;;;6.38;2.15;;;;;;;;;;5073923;28;20070;-46
2021/08/14 12:24:09;;;;;;;19.35;5.03;;;;;;;;;;5072245;28;20103;-47
2021/08/14 12:26:34;;;;;;;19.73;6.70;;;;;;;;;;5070103;28;20575;-48
2021/08/14 12:29:00;;;;;;;5.30;1.40;;;;;;;;;;5070141;28;20027;-49
2021/08/14 12:31:26;;;;;;;3.83;1.48;;;;;;;;;;5070268;28;20025;-46
2021/08/14 12:33:51;;;;;;;2.67;1.80;;;;;;;;;;5071900;28;20027;-44
2021/08/14 12:36:34;;;;;;;8.80;2.78;;;;;;;;;;5071736;28;20031;-51
2021/08/14 12:38:59;;;;;;;14.93;2.40;;;;;;;;;;5064336;28;20025;-45
2021/08/14 12:41:24;;;;;;;10.00;3.28;;;;;;;;;;5071862;28;20027;-51
2021/08/14 12:43:51;;;;;;;5.97;3.17;;;;;;;;;;5070360;28;20032;-43
2021/08/14 12:46:25;;;;;;;16.00;4.05;;;;;;;;;;5072039;28;20059;-44
2021/08/14 12:49:08;;;;;;;22.02;5.10;;;;;;;;;;5073956;28;20028;-44
2021/08/14 12:51:34;;;;;;;2.65;1.58;;;;;;;;;;5071168;28;20490;-42
2021/08/14 12:54:09;;;;;;;10.43;2.70;;;;;;;;;;5073647;28;20060;-48
2021/08/14 12:56:38;;;;;;;9.73;3.25;;;;;;;;;;5070872;28;20031;-47
2021/08/14 12:59:03;;;;;;;3.63;1.73;;;;;;;;;;5069591;28;20108;-45
2021/08/14 13:01:28;;;;;;;3.90;2.13;;;;;;;;;;5072088;28;20127;-47
2021/08/14 13:03:54;;;;;;;23.52;6.53;;;;;;;;;;5071710;28;20472;-43
2021/08/14 13:06:19;;;;;;;18.83;4.20;;;;;;;;;;5076580;28;20031;-45
2021/08/14 13:08:44;;;;;;;6.47;2.38;;;;;;;;;;5070802;28;20123;-47
2021/08/14 13:11:09;;;;;;;13.95;3.58;;;;;;;;;;5077556;28;20463;-46
2021/08/14 13:13:35;;;;;;;6.05;2.45;;;;;;;;;;5071946;28;20028;-44
2021/08/14 13:16:00;;;;;;;12.05;3.22;;;;;;;;;;5070744;28;20095;-46
2021/08/14 13:18:25;;;;;;;9.95;3.53;;;;;;;;;;5069382;28;20508;-47
2021/08/14 13:20:51;;;;;;;26.77;4.28;;;;;;;;;;5069911;28;20082;-47
2021/08/14 13:23:16;;;;;;;6.03;2.42;;;;;;;;;;5075980;28;20119;-42
2021/08/14 13:25:41;;;;;;;17.08;3.33;;;;;;;;;;5075941;28;20024;-47
2021/08/14 13:28:07;;;;;;;3.03;1.15;;;;;;;;;;5079173;28;20023;-45
2021/08/14 13:30:32;;;;;;;4.45;2.03;;;;;;;;;;5076299;28;20025;-46
2021/08/14 13:32:57;;;;;;;8.65;4.20;;;;;;;;;;5079878;28;20134;-45
2021/08/14 13:35:23;;;;;;;12.48;3.13;;;;;;;;;;5080704;28;20055;-45
2021/08/14 13:37:48;;;;;;;6.78;2.67;;;;;;;;;;5079247;28;20420;-44
2021/08/14 13:40:14;;;;;;;5.15;3.50;;;;;;;;;;5077472;28;20383;-47
2021/08/14 13:42:40;;;;;;;10.55;3.47;;;;;;;;;;5078027;28;20032;-45
2021/08/14 13:45:06;;;;;;;12.95;3.88;;;;;;;;;;5073944;28;20051;-43
2021/08/14 13:47:32;;;;;;;16.05;3.88;;;;;;;;;;5080217;28;20040;-46
2021/08/14 13:49:57;;;;;;;5.53;3.10;;;;;;;;;;5076419;28;20055;-44
2021/08/14 13:52:23;;;;;;;16.35;4.90;;;;;;;;;;5076965;28;20020;-47
2021/08/14 13:54:48;;;;;;;19.13;5.13;;;;;;;;;;5077816;28;20008;-43
2021/08/14 13:57:13;;;;;;;9.52;3.97;;;;;;;;;;5076429;28;20029;-44
2021/08/14 13:59:39;;;;;;;19.08;5.10;;;;;;;;;;5074173;28;20027;-47
2021/08/14 14:02:04;;;;;;;4.18;1.90;;;;;;;;;;5077199;28;20043;-47
2021/08/14 14:04:29;;;;;;;1.15;0.98;;;;;;;;;;5068559;28;20017;-46
2021/08/14 14:06:55;;;;;;;9.77;4.35;;;;;;;;;;5080612;28;20035;-42
2021/08/14 14:09:21;;;;;;;9.82;2.60;;;;;;;;;;5076491;28;20415;-43
2021/08/14 14:11:47;;;;;;;10.40;3.25;;;;;;;;;;5075348;28;20047;-45
2021/08/14 14:14:12;;;;;;;10.00;4.63;;;;;;;;;;5078182;28;20495;-46
2021/08/14 14:16:37;;;;;;;19.75;7.25;;;;;;;;;;5076526;28;20510;-48
2021/08/14 14:19:02;;;;;;;19.55;4.22;;;;;;;;;;5074835;28;20020;-47
2021/08/14 14:21:28;;;;;;;15.90;3.70;;;;;;;;;;5075819;28;20113;-46
2021/08/14 14:23:53;;;;;;;17.98;5.30;;;;;;;;;;5073483;28;20426;-48
2021/08/14 14:26:19;;;;;;;11.50;5.00;;;;;;;;;;5076479;28;20036;-46
2021/08/14 14:28:44;;;;;;;4.78;2.88;;;;;;;;;;5073733;28;20106;-46